Time;durP1;ratioP1;P1;durP2;ratioP2;P2;SDS_P1;SDS_P2;PMS_P1;PMS_P2;Temp;Humidity;BMP_temperature;BMP_pressure;BME280_temperature;BME280_humidity;BME280_pressure;Samples;Min_cycle;Max_cycle;Signal;HPM_P1;HPM_P2
2022/05/07 00:01:24;;;;;;;11.13;9.53;;;12.10;99.90;;;;;;5159187;27;20445;-60
2022/05/07 00:03:51;;;;;;;9.80;7.93;;;12.00;99.90;;;;;;5159196;27;20569;-60
2022/05/07 00:06:18;;;;;;;10.97;8.10;;;12.00;99.90;;;;;;5158870;27;20483;-60
2022/05/07 00:08:46;;;;;;;10.50;8.70;;;11.90;99.90;;;;;;5159147;27;20938;-60
2022/05/07 00:11:15;;;;;;;8.83;7.67;;;11.90;99.90;;;;;;5159086;27;20448;-60
2022/05/07 00:13:45;;;;;;;9.10;8.20;;;12.00;99.90;;;;;;5158598;27;20834;-60
2022/05/07 00:18:57;;;;;;;8.90;8.00;;;11.90;99.90;;;;;;5158774;27;20439;-60
2022/05/07 00:21:24;;;;;;;9.13;8.10;;;11.90;99.90;;;;;;5158821;27;20469;-61
2022/05/07 00:23:51;;;;;;;8.30;7.50;;;11.90;99.90;;;;;;5158853;27;20480;-62
2022/05/07 00:26:19;;;;;;;9.57;7.70;;;11.80;99.90;;;;;;5158339;27;20563;-61
2022/05/07 00:28:47;;;;;;;14.07;8.07;;;11.80;99.90;;;;;;5158193;27;20487;-61
2022/05/07 00:31:19;;;;;;;9.40;8.60;;;11.70;99.90;;;;;;5158604;27;20497;-61
2022/05/07 00:33:46;;;;;;;10.47;9.30;;;11.70;99.90;;;;;;5158609;27;20527;-61
2022/05/07 00:36:13;;;;;;;13.00;9.20;;;11.60;99.90;;;;;;5158465;27;20787;-61
2022/05/07 00:38:40;;;;;;;9.60;8.50;;;11.60;99.90;;;;;;5158607;27;20631;-60
2022/05/07 00:41:08;;;;;;;10.03;9.03;;;11.60;99.90;;;;;;5158092;27;20447;-61
2022/05/07 00:43:36;;;;;;;10.70;9.60;;;11.50;99.90;;;;;;5157983;27;20448;-61
2022/05/07 00:46:05;;;;;;;9.77;8.13;;;11.60;99.90;;;;;;5158250;27;20481;-61
2022/05/07 00:48:32;;;;;;;11.23;8.13;;;11.60;99.90;;;;;;5158292;27;20469;-60
2022/05/07 00:53:45;;;;;;;15.80;9.00;;;11.60;99.90;;;;;;5158204;27;20522;-60
2022/05/07 00:56:13;;;;;;;9.43;8.60;;;11.50;99.90;;;;;;5157870;27;20500;-61
2022/05/07 00:58:40;;;;;;;9.50;8.60;;;11.50;99.90;;;;;;5157789;27;20471;-60
2022/05/07 01:01:09;;;;;;;11.83;8.80;;;11.50;99.90;;;;;;5157702;27;20452;-61
2022/05/07 01:03:38;;;;;;;10.83;9.40;;;11.40;99.90;;;;;;5157764;27;20953;-61
2022/05/07 01:06:05;;;;;;;11.43;9.90;;;11.50;99.90;;;;;;5157490;27;20520;-60
2022/05/07 01:08:33;;;;;;;12.73;11.33;;;11.40;99.90;;;;;;5157105;27;20476;-61
2022/05/07 01:11:01;;;;;;;11.17;9.90;;;11.40;99.90;;;;;;5157539;27;20961;-60
2022/05/07 01:13:29;;;;;;;9.57;8.50;;;11.30;99.90;;;;;;5157475;27;20900;-60
2022/05/07 01:15:57;;;;;;;13.80;11.70;;;11.30;99.90;;;;;;5157743;27;20472;-60
2022/05/07 01:18:26;;;;;;;16.47;8.53;;;11.30;99.90;;;;;;5157656;27;20544;-61
2022/05/07 01:20:57;;;;;;;9.40;8.50;;;11.30;99.90;;;;;;5157623;27;20476;-60
2022/05/07 01:23:26;;;;;;;11.07;8.17;;;11.10;99.90;;;;;;5157715;27;20429;-60
2022/05/07 01:25:59;;;;;;;10.60;9.50;;;11.00;99.90;;;;;;5157454;27;20541;-61
2022/05/07 01:28:26;;;;;;;12.13;8.50;;;10.90;99.90;;;;;;5157331;27;20525;-61
2022/05/07 01:30:54;;;;;;;11.17;8.47;;;10.90;99.90;;;;;;5157473;27;20516;-61
2022/05/07 01:33:21;;;;;;;8.80;7.80;;;11.00;99.90;;;;;;5157524;27;20455;-61
2022/05/07 01:35:49;;;;;;;9.73;8.83;;;10.90;99.90;;;;;;5157342;27;20437;-61
2022/05/07 01:38:16;;;;;;;9.67;8.67;;;11.00;99.90;;;;;;5157230;27;20971;-61
2022/05/07 01:40:44;;;;;;;9.90;8.90;;;11.10;99.90;;;;;;5157276;27;20444;-61
2022/05/07 01:43:12;;;;;;;9.57;8.53;;;11.00;99.90;;;;;;5157165;27;20452;-60
2022/05/07 01:45:39;;;;;;;10.60;9.50;;;11.10;99.90;;;;;;5156655;27;20477;-60
2022/05/07 01:48:11;;;;;;;10.00;9.07;;;11.10;99.90;;;;;;5156825;27;20535;-61
2022/05/07 01:50:39;;;;;;;12.07;10.67;;;11.00;99.90;;;;;;5156820;27;20922;-59
2022/05/07 01:53:08;;;;;;;12.83;9.20;;;11.00;99.90;;;;;;5157293;27;20445;-60
2022/05/07 01:55:35;;;;;;;10.73;9.03;;;11.00;99.90;;;;;;5156949;27;20492;-60
2022/05/07 01:58:04;;;;;;;12.87;9.73;;;11.00;99.90;;;;;;5156808;27;20465;-60
2022/05/07 02:00:32;;;;;;;11.07;9.97;;;11.10;99.90;;;;;;5156856;27;20452;-60
2022/05/07 02:03:00;;;;;;;10.27;8.77;;;11.00;99.90;;;;;;5156564;27;20451;-61
2022/05/07 02:05:28;;;;;;;11.37;9.67;;;11.00;99.90;;;;;;5156350;27;20472;-61
2022/05/07 02:07:56;;;;;;;14.60;9.50;;;10.90;99.90;;;;;;5156737;27;20951;-61
2022/05/07 02:10:24;;;;;;;13.33;10.37;;;10.90;99.90;;;;;;5156373;27;20935;-61
2022/05/07 02:12:53;;;;;;;13.33;12.10;;;10.90;99.90;;;;;;5156693;27;20440;-60
2022/05/07 02:15:21;;;;;;;11.90;10.20;;;10.90;99.90;;;;;;5156487;27;20524;-61
2022/05/07 02:17:49;;;;;;;11.80;10.53;;;10.80;99.90;;;;;;5156238;27;20441;-62
2022/05/07 02:20:16;;;;;;;12.33;10.80;;;10.80;99.90;;;;;;5155144;27;20436;-61
2022/05/07 02:22:44;;;;;;;11.70;9.57;;;10.80;99.90;;;;;;5156269;27;20531;-61
2022/05/07 02:25:11;;;;;;;12.80;9.83;;;10.70;99.90;;;;;;5156056;27;20476;-61
2022/05/07 02:27:38;;;;;;;11.50;10.33;;;10.40;99.90;;;;;;5156344;27;20445;-61
2022/05/07 02:30:07;;;;;;;11.40;10.20;;;10.40;99.90;;;;;;5154776;27;20837;-61
2022/05/07 02:32:35;;;;;;;13.37;10.43;;;10.50;99.90;;;;;;5156316;27;20787;-60
2022/05/07 02:35:02;;;;;;;10.73;9.50;;;10.60;99.90;;;;;;5155861;27;20441;-61
2022/05/07 02:37:30;;;;;;;11.63;10.50;;;10.60;99.90;;;;;;5155974;27;20437;-60
2022/05/07 02:39:57;;;;;;;11.73;10.50;;;10.50;99.90;;;;;;5156210;27;20528;-60
2022/05/07 02:42:39;;;;;;;12.63;8.93;;;10.50;99.90;;;;;;5155947;27;20436;-60
2022/05/07 02:45:08;;;;;;;14.20;11.87;;;10.40;99.90;;;;;;5155767;27;20762;-60
2022/05/07 02:47:38;;;;;;;14.27;9.10;;;10.30;99.90;;;;;;5155668;27;20445;-61
2022/05/07 02:50:07;;;;;;;13.87;11.20;;;10.30;99.90;;;;;;5155902;27;20441;-60
2022/05/07 02:52:34;;;;;;;10.90;9.90;;;10.50;99.90;;;;;;5155664;27;20445;-60
2022/05/07 02:55:02;;;;;;;12.03;10.13;;;10.50;99.90;;;;;;5155823;27;20451;-61
2022/05/07 02:57:30;;;;;;;12.30;10.93;;;10.50;99.90;;;;;;5155903;27;20444;-60
2022/05/07 02:59:57;;;;;;;10.70;8.93;;;10.40;99.90;;;;;;5155445;27;20443;-61
2022/05/07 03:02:24;;;;;;;11.77;9.27;;;10.40;99.90;;;;;;5155839;27;20494;-60
2022/05/07 03:04:54;;;;;;;11.00;9.80;;;10.40;99.90;;;;;;5155295;27;20440;-62
2022/05/07 03:07:21;;;;;;;11.80;8.80;;;10.40;99.90;;;;;;5155578;27;20459;-61
2022/05/07 03:09:49;;;;;;;11.33;9.40;;;10.30;99.90;;;;;;5155248;27;20456;-62
2022/05/07 03:12:16;;;;;;;12.50;9.40;;;10.40;99.90;;;;;;5155654;27;20877;-60
2022/05/07 03:14:43;;;;;;;10.87;8.63;;;10.40;99.90;;;;;;5155129;27;20441;-60
2022/05/07 03:17:10;;;;;;;10.73;9.20;;;10.40;99.90;;;;;;5155532;27;20440;-60
2022/05/07 03:19:37;;;;;;;11.13;10.00;;;10.40;99.90;;;;;;5155368;27;20536;-58
2022/05/07 03:22:06;;;;;;;10.60;9.50;;;10.50;99.90;;;;;;5155154;27;20446;-58
2022/05/07 03:24:37;;;;;;;12.80;8.83;;;10.50;99.90;;;;;;5155350;27;20776;-59
2022/05/07 03:27:05;;;;;;;11.63;9.73;;;10.50;99.90;;;;;;5155372;27;20461;-58
2022/05/07 03:29:33;;;;;;;13.97;9.10;;;10.50;99.90;;;;;;5154710;27;21083;-59
2022/05/07 03:32:00;;;;;;;9.30;8.30;;;10.50;99.90;;;;;;5154702;27;20457;-58
2022/05/07 03:34:27;;;;;;;11.83;9.27;;;10.40;99.90;;;;;;5155245;27;20447;-59
2022/05/07 03:36:54;;;;;;;9.90;8.50;;;10.30;99.90;;;;;;5155275;27;20527;-59
2022/05/07 03:39:23;;;;;;;10.10;8.70;;;10.30;99.90;;;;;;5155396;27;21008;-58
2022/05/07 03:41:51;;;;;;;10.03;9.03;;;10.30;99.90;;;;;;5155281;27;20991;-58
2022/05/07 03:44:18;;;;;;;10.03;8.37;;;10.30;99.90;;;;;;5154780;27;20931;-59
2022/05/07 03:46:45;;;;;;;12.20;9.27;;;10.20;99.90;;;;;;5154738;27;20481;-59
2022/05/07 03:49:12;;;;;;;9.80;8.80;;;10.20;99.90;;;;;;5154795;27;20835;-58
2022/05/07 03:54:20;;;;;;;12.00;9.00;;;10.10;99.90;;;;;;5153943;27;20412;-59
2022/05/07 03:56:48;;;;;;;9.33;8.17;;;10.20;99.90;;;;;;5154822;27;20990;-59
2022/05/07 03:59:16;;;;;;;10.53;8.37;;;10.20;99.90;;;;;;5154595;27;20461;-59
2022/05/07 04:01:43;;;;;;;9.73;8.90;;;10.20;99.90;;;;;;5154814;27;20464;-60
2022/05/07 04:04:10;;;;;;;12.17;7.97;;;10.20;99.90;;;;;;5155051;27;20443;-59
2022/05/07 04:06:37;;;;;;;8.43;7.63;;;10.20;99.90;;;;;;5154752;27;20498;-59
2022/05/07 04:09:04;;;;;;;9.70;7.93;;;10.10;99.90;;;;;;5155170;27;20819;-59
2022/05/07 04:11:32;;;;;;;8.90;8.10;;;10.10;99.90;;;;;;5154864;27;20556;-59
2022/05/07 04:14:00;;;;;;;9.43;8.00;;;10.10;99.90;;;;;;5154912;27;20440;-59
2022/05/07 04:16:27;;;;;;;11.13;8.03;;;10.10;99.90;;;;;;5154867;27;20443;-59
2022/05/07 04:18:54;;;;;;;9.73;8.90;;;10.10;99.90;;;;;;5154895;27;20555;-59
2022/05/07 04:21:22;;;;;;;12.57;8.90;;;10.10;99.90;;;;;;5154798;27;20459;-59
2022/05/07 04:23:49;;;;;;;9.37;8.47;;;10.10;99.90;;;;;;5154549;27;20493;-59
2022/05/07 04:26:16;;;;;;;11.20;8.07;;;10.10;99.90;;;;;;5154397;27;20472;-59
2022/05/07 04:28:44;;;;;;;8.03;7.27;;;10.10;99.90;;;;;;5154490;27;20673;-59
2022/05/07 04:31:15;;;;;;;11.10;8.40;;;9.90;99.90;;;;;;5154735;27;20433;-59
2022/05/07 04:33:42;;;;;;;9.70;8.80;;;9.90;99.90;;;;;;5154804;27;20429;-59
2022/05/07 04:36:09;;;;;;;10.73;9.07;;;9.90;99.90;;;;;;5154368;27;20935;-59
2022/05/07 04:38:37;;;;;;;9.07;8.13;;;9.90;99.90;;;;;;5154746;27;20469;-59
2022/05/07 04:41:04;;;;;;;11.77;9.43;;;9.90;99.90;;;;;;5154249;27;20842;-59
2022/05/07 04:43:31;;;;;;;16.90;9.57;;;10.00;99.90;;;;;;5157029;27;20451;-59
2022/05/07 04:45:59;;;;;;;10.27;8.03;;;10.00;99.90;;;;;;5158138;27;20480;-59
2022/05/07 04:48:27;;;;;;;9.63;8.57;;;10.10;99.90;;;;;;5158378;27;20449;-58
2022/05/07 04:50:54;;;;;;;10.30;9.27;;;10.10;99.90;;;;;;5157913;27;20441;-59
2022/05/07 04:53:21;;;;;;;8.83;7.97;;;10.10;99.90;;;;;;5158287;27;20445;-59
2022/05/07 04:55:49;;;;;;;9.60;7.97;;;10.10;99.90;;;;;;5157782;27;20441;-59
2022/05/07 04:58:16;;;;;;;9.87;8.87;;;10.10;99.90;;;;;;5157786;27;20963;-59
2022/05/07 05:00:43;;;;;;;9.30;8.27;;;10.10;99.90;;;;;;5158040;27;20880;-59
2022/05/07 05:03:12;;;;;;;11.17;8.27;;;10.20;99.90;;;;;;5157758;27;20441;-59
2022/05/07 05:05:41;;;;;;;9.70;8.80;;;10.30;99.90;;;;;;5157600;27;21043;-59
2022/05/07 05:08:08;;;;;;;10.43;8.43;;;10.40;99.90;;;;;;5157799;27;20950;-59
2022/05/07 05:10:35;;;;;;;11.03;9.93;;;10.40;99.90;;;;;;5157842;27;20445;-59
2022/05/07 05:13:02;;;;;;;9.63;8.53;;;10.50;99.90;;;;;;5157526;27;20934;-59
2022/05/07 05:15:30;;;;;;;9.63;8.30;;;10.50;99.90;;;;;;5157765;27;20444;-59
2022/05/07 05:17:57;;;;;;;9.47;8.40;;;10.60;99.90;;;;;;5157433;27;20465;-59
2022/05/07 05:20:24;;;;;;;9.50;6.97;;;10.60;99.90;;;;;;5157433;27;20455;-59
2022/05/07 05:22:52;;;;;;;9.80;8.70;;;10.70;99.90;;;;;;5157503;27;20445;-59
2022/05/07 05:25:20;;;;;;;9.93;7.87;;;10.70;99.90;;;;;;5157342;27;20451;-59
2022/05/07 05:27:48;;;;;;;11.50;9.30;;;10.70;99.90;;;;;;5156900;27;20567;-60
2022/05/07 05:30:16;;;;;;;9.17;8.27;;;10.80;99.90;;;;;;5157110;27;20472;-59
2022/05/07 05:32:43;;;;;;;9.43;8.53;;;10.90;99.90;;;;;;5157458;27;20573;-59
2022/05/07 05:35:10;;;;;;;9.07;8.27;;;11.00;99.90;;;;;;5157470;27;20451;-59
2022/05/07 05:37:37;;;;;;;13.03;9.10;;;11.00;99.90;;;;;;5157237;27;20452;-59
2022/05/07 05:40:07;;;;;;;9.50;8.70;;;11.10;99.90;;;;;;5157408;27;20441;-59
2022/05/07 05:42:34;;;;;;;9.57;8.73;;;11.10;99.90;;;;;;5157214;27;20455;-59
2022/05/07 05:45:01;;;;;;;10.27;9.20;;;11.10;99.90;;;;;;5156906;27;20483;-60
2022/05/07 05:47:28;;;;;;;12.00;9.43;;;11.20;99.90;;;;;;5157042;27;20480;-59
2022/05/07 05:49:55;;;;;;;9.27;8.47;;;11.20;99.90;;;;;;5156840;27;20467;-59
2022/05/07 05:52:22;;;;;;;9.67;8.70;;;11.30;99.90;;;;;;5157060;27;20448;-59
2022/05/07 05:54:49;;;;;;;10.63;9.20;;;11.30;99.90;;;;;;5156916;27;20445;-59
2022/05/07 05:57:18;;;;;;;10.33;9.33;;;11.50;99.90;;;;;;5156647;27;21013;-59
2022/05/07 05:59:45;;;;;;;11.17;8.20;;;11.50;99.90;;;;;;5156583;27;20958;-58
2022/05/07 06:02:12;;;;;;;11.40;8.27;;;11.50;99.90;;;;;;5156832;27;20521;-59
2022/05/07 06:04:39;;;;;;;10.20;9.07;;;11.60;99.90;;;;;;5156516;27;20939;-59
2022/05/07 06:07:06;;;;;;;9.83;8.73;;;11.80;99.90;;;;;;5156486;27;20473;-58
2022/05/07 06:09:33;;;;;;;12.40;9.60;;;11.70;99.90;;;;;;5156723;27;20496;-59
2022/05/07 06:12:01;;;;;;;12.87;10.93;;;11.80;99.90;;;;;;5156353;27;20536;-59
2022/05/07 06:14:29;;;;;;;11.97;10.80;;;11.80;99.90;;;;;;5156595;27;20520;-58
2022/05/07 06:16:56;;;;;;;14.17;11.13;;;11.90;99.90;;;;;;5156282;27;20437;-58
2022/05/07 06:19:23;;;;;;;12.00;10.80;;;12.00;99.90;;;;;;5156519;27;20507;-59
2022/05/07 06:21:51;;;;;;;13.53;12.13;;;12.10;99.90;;;;;;5156446;27;20449;-60
2022/05/07 06:29:48;;;;;;;15.83;13.87;;;12.20;99.90;;;;;;5155839;27;20491;-59
2022/05/07 06:32:17;;;;;;;16.50;12.80;;;12.40;99.90;;;;;;5155869;27;20927;-59
2022/05/07 06:34:49;;;;;;;14.17;12.17;;;12.40;99.90;;;;;;5156255;27;20463;-59
2022/05/07 06:37:16;;;;;;;18.07;13.73;;;12.60;99.90;;;;;;5156004;27;20452;-59
2022/05/07 06:39:43;;;;;;;14.57;13.00;;;12.60;99.90;;;;;;5156063;27;20472;-58
2022/05/07 06:42:10;;;;;;;15.10;12.87;;;12.70;99.90;;;;;;5156033;27;20445;-58
2022/05/07 06:44:38;;;;;;;15.50;12.80;;;12.70;99.90;;;;;;5155963;27;20794;-60
2022/05/07 06:47:06;;;;;;;19.53;12.40;;;12.80;99.90;;;;;;5155838;27;20485;-58
2022/05/07 06:49:33;;;;;;;15.57;12.43;;;12.90;99.90;;;;;;5155702;27;20473;-59
2022/05/07 06:52:01;;;;;;;15.87;12.27;;;13.00;99.90;;;;;;5155530;27;20440;-58
2022/05/07 06:54:28;;;;;;;15.07;13.53;;;13.00;99.90;;;;;;5155709;27;20923;-59
2022/05/07 06:56:55;;;;;;;13.63;12.33;;;13.10;99.90;;;;;;5155767;27;20436;-59
2022/05/07 06:59:22;;;;;;;14.57;13.00;;;13.20;99.90;;;;;;5155764;27;20522;-59
2022/05/07 07:01:49;;;;;;;13.20;11.80;;;13.20;99.90;;;;;;5155878;27;20523;-59
2022/05/07 07:04:18;;;;;;;15.07;13.57;;;13.30;99.90;;;;;;5155902;27;20458;-59
2022/05/07 07:06:45;;;;;;;13.47;12.27;;;13.40;99.90;;;;;;5155135;27;20502;-60
2022/05/07 07:09:12;;;;;;;13.67;12.33;;;13.50;99.90;;;;;;5156010;27;20490;-59
2022/05/07 07:11:39;;;;;;;13.43;12.07;;;13.60;99.90;;;;;;5155771;27;20448;-59
2022/05/07 07:14:06;;;;;;;15.83;12.80;;;13.70;99.90;;;;;;5155792;27;20449;-58
2022/05/07 07:16:34;;;;;;;13.77;12.27;;;13.80;99.90;;;;;;5155441;27;20444;-59
2022/05/07 07:19:01;;;;;;;13.83;11.63;;;13.70;99.90;;;;;;5155549;27;21045;-59
2022/05/07 07:21:29;;;;;;;12.57;11.27;;;13.70;99.90;;;;;;5155281;27;20436;-58
2022/05/07 07:23:57;;;;;;;12.70;11.50;;;13.70;99.90;;;;;;5155513;27;20440;-58
2022/05/07 07:26:24;;;;;;;12.93;11.00;;;13.70;99.90;;;;;;5155294;27;20509;-58
2022/05/07 07:28:52;;;;;;;15.10;12.23;;;13.80;99.90;;;;;;5154452;27;21026;-59
2022/05/07 07:31:19;;;;;;;13.33;10.13;;;13.90;99.90;;;;;;5155358;27;20425;-59
2022/05/07 07:33:46;;;;;;;11.90;9.57;;;14.10;99.90;;;;;;5155058;27;20536;-59
2022/05/07 07:36:13;;;;;;;10.93;9.93;;;14.20;99.90;;;;;;5155159;27;20444;-60
2022/05/07 07:38:42;;;;;;;12.13;10.90;;;14.40;99.90;;;;;;5154995;27;20563;-60
2022/05/07 07:41:09;;;;;;;12.53;9.97;;;14.60;99.90;;;;;;5154616;27;21002;-60
2022/05/07 07:43:39;;;;;;;14.63;9.17;;;14.90;99.90;;;;;;5152698;27;20460;-58
2022/05/07 07:48:54;;;;;;;9.97;9.07;;;;;;;;;;5151899;27;20590;-58
2022/05/07 07:51:22;;;;;;;9.30;8.40;;;17.40;99.90;;;;;;5151497;27;20460;-57
2022/05/07 07:53:50;;;;;;;11.07;9.23;;;18.20;99.90;;;;;;5150700;27;20949;-56
2022/05/07 07:56:18;;;;;;;12.60;9.63;;;18.90;99.90;;;;;;5151590;27;20448;-57
2022/05/07 07:58:45;;;;;;;9.93;8.53;;;19.70;99.90;;;;;;5150530;27;20533;-57
2022/05/07 08:01:12;;;;;;;12.13;9.00;;;;;;;;;;5150701;27;20456;-56
2022/05/07 08:03:40;;;;;;;10.33;9.33;;;20.70;99.90;;;;;;5144587;27;20480;-56
2022/05/07 08:06:08;;;;;;;9.37;8.47;;;20.00;99.90;;;;;;5151402;27;21240;-53
2022/05/07 08:14:06;;;;;;;9.43;8.50;;;21.10;99.90;;;;;;5140783;27;20971;-52
2022/05/07 08:16:35;;;;;;;10.23;9.20;;;20.80;99.90;;;;;;5140499;27;21244;-55
2022/05/07 08:19:03;;;;;;;11.20;9.90;;;21.20;99.60;;;;;;5134387;27;20484;-58
2022/05/07 08:21:34;;;;;;;13.77;12.20;;;20.80;99.10;;;;;;5141314;27;20472;-56
2022/05/07 08:24:01;;;;;;;11.77;10.63;;;20.70;98.60;;;;;;5141105;27;20534;-56
2022/05/07 08:26:30;;;;;;;12.73;11.30;;;20.80;99.30;;;;;;5140330;27;20506;-54
2022/05/07 08:28:58;;;;;;;12.93;11.63;;;21.10;98.60;;;;;;5137907;27;20491;-55
2022/05/07 08:31:27;;;;;;;11.70;10.60;;;21.40;98.00;;;;;;5137536;27;20456;-57
2022/05/07 08:33:54;;;;;;;13.00;10.63;;;21.50;98.30;;;;;;5138519;27;20454;-58
2022/05/07 08:36:23;;;;;;;9.60;8.80;;;22.40;97.80;;;;;;5138531;27;20462;-60
2022/05/07 08:38:50;;;;;;;11.73;10.57;;;23.00;97.00;;;;;;5139670;27;20501;-59
2022/05/07 08:41:19;;;;;;;10.83;9.87;;;23.00;96.90;;;;;;5135794;27;21310;-58
2022/05/07 08:43:47;;;;;;;11.90;10.63;;;23.30;96.60;;;;;;5141603;27;20449;-59
2022/05/07 08:46:19;;;;;;;12.13;11.03;;;23.50;96.40;;;;;;5141436;27;20963;-61
2022/05/07 08:48:47;;;;;;;12.17;10.97;;;23.60;95.40;;;;;;5134893;27;22043;-55
2022/05/07 08:51:16;;;;;;;11.60;10.43;;;23.50;95.00;;;;;;5137641;27;20538;-59
2022/05/07 08:53:44;;;;;;;10.40;9.40;;;23.70;95.00;;;;;;5138610;27;20470;-59
2022/05/07 08:56:12;;;;;;;13.27;10.30;;;23.80;95.70;;;;;;5137169;27;20442;-60
2022/05/07 08:58:40;;;;;;;10.80;9.70;;;23.90;94.70;;;;;;5136263;27;20633;-57
2022/05/07 09:01:12;;;;;;;11.13;9.93;;;23.70;93.30;;;;;;5140833;27;20454;-61
2022/05/07 09:03:42;;;;;;;10.90;9.90;;;23.70;93.80;;;;;;5139333;27;20452;-63
2022/05/07 09:06:20;;;;;;;11.50;10.43;;;23.70;92.70;;;;;;5141253;27;20460;-62
2022/05/07 09:08:48;;;;;;;12.23;10.00;;;23.90;93.80;;;;;;5138968;27;20493;-62
2022/05/07 09:11:18;;;;;;;11.40;10.47;;;24.40;93.10;;;;;;5135237;27;20445;-61
2022/05/07 09:13:46;;;;;;;15.80;9.70;;;24.80;92.60;;;;;;5140249;27;20456;-61
2022/05/07 09:16:15;;;;;;;10.53;9.47;;;25.40;92.60;;;;;;5138361;27;20445;-63
2022/05/07 09:18:52;;;;;;;11.40;9.80;;;24.90;90.70;;;;;;5135990;27;20465;-62
2022/05/07 09:21:26;;;;;;;14.33;9.77;;;24.80;90.70;;;;;;5142249;27;20528;-62
2022/05/07 09:24:03;;;;;;;9.40;8.50;;;25.10;89.20;;;;;;5135004;27;20492;-62
2022/05/07 09:26:32;;;;;;;7.20;6.37;;;25.20;86.90;;;;;;5133856;27;20439;-58
2022/05/07 09:29:01;;;;;;;8.13;5.80;;;24.60;85.80;;;;;;5135611;27;20557;-60
2022/05/07 09:31:31;;;;;;;7.20;6.50;;;25.20;85.30;;;;;;5135458;27;21031;-59
2022/05/07 09:35:47;;;;;;;6.17;5.60;;;25.30;81.50;;;;;;5132145;27;20451;-56
2022/05/07 09:36:47;;;;;;;5.40;4.70;;;25.10;84.90;;;;;;5136138;27;20469;-54
2022/05/07 09:39:15;;;;;;;5.90;5.40;;;25.30;77.60;;;;;;5131973;27;20479;-57
2022/05/07 09:41:43;;;;;;;7.50;5.93;;;24.80;81.00;;;;;;5133368;27;20453;-61
2022/05/07 09:44:11;;;;;;;5.70;5.20;;;24.90;79.50;;;;;;5130045;27;20467;-58
2022/05/07 09:46:40;;;;;;;4.90;4.33;;;25.80;82.20;;;;;;5133628;27;20445;-58
2022/05/07 09:49:08;;;;;;;7.40;6.03;;;25.90;75.80;;;;;;5129498;27;20489;-62
2022/05/07 09:51:35;;;;;;;5.53;4.90;;;25.70;76.50;;;;;;5132346;27;20437;-58
2022/05/07 09:59:33;;;;;;;5.00;4.43;;;25.90;72.80;;;;;;5126596;27;20476;-60
2022/05/07 10:02:17;;;;;;;4.60;3.97;;;25.20;73.70;;;;;;5128010;27;20453;-58
2022/05/07 10:05:18;;;;;;;6.33;3.67;;;25.80;71.00;;;;;;5133300;27;20452;-57
2022/05/07 10:08:01;;;;;;;3.93;3.40;;;26.20;71.10;;;;;;5129841;27;20520;-57
2022/05/07 10:10:31;;;;;;;5.13;4.43;;;26.20;66.60;;;;;;5130316;27;20509;-56
2022/05/07 10:13:01;;;;;;;4.50;4.07;;;26.10;68.40;;;;;;5133079;27;20945;-56
2022/05/07 10:15:28;;;;;;;4.20;3.90;;;26.50;68.70;;;;;;5138085;27;20932;-56
2022/05/07 10:18:02;;;;;;;3.03;2.83;;;26.80;69.00;;;;;;5136675;27;20473;-55
2022/05/07 10:20:43;;;;;;;3.53;3.10;;;26.60;60.80;;;;;;5133698;27;20452;-57
2022/05/07 10:23:12;;;;;;;7.67;3.53;;;26.40;59.00;;;;;;5136437;27;20483;-62
2022/05/07 10:25:40;;;;;;;3.37;2.50;;;26.70;63.80;;;;;;5137433;27;20445;-56
2022/05/07 10:28:10;;;;;;;2.97;2.67;;;27.00;56.40;;;;;;5134375;27;20484;-59
2022/05/07 10:30:51;;;;;;;3.63;3.00;;;27.30;57.20;;;;;;5135414;27;20511;-57
2022/05/07 10:33:22;;;;;;;4.93;2.67;;;27.50;54.60;;;;;;5132247;27;20524;-58
2022/05/07 10:35:52;;;;;;;4.00;2.77;;;26.60;52.30;;;;;;5138599;27;21326;-59
2022/05/07 10:38:30;;;;;;;3.90;3.50;;;26.70;54.50;;;;;;5138001;27;20560;-58
2022/05/07 10:40:58;;;;;;;4.80;3.37;;;26.60;54.40;;;;;;5140278;27;20583;-58
2022/05/07 10:43:32;;;;;;;3.60;3.03;;;27.00;55.70;;;;;;5138762;27;20568;-60
2022/05/07 10:46:05;;;;;;;4.77;2.80;;;26.90;57.50;;;;;;5138761;27;20452;-60
2022/05/07 10:48:45;;;;;;;3.33;3.03;;;27.40;58.20;;;;;;5137815;27;20515;-58
2022/05/07 10:51:22;;;;;;;3.23;2.93;;;28.00;56.80;;;;;;5134643;27;20924;-61
2022/05/07 10:53:51;;;;;;;3.27;3.00;;;27.80;55.20;;;;;;5132771;27;20479;-59
2022/05/07 10:56:20;;;;;;;3.90;3.60;;;27.70;56.50;;;;;;5134644;27;20458;-61
2022/05/07 10:58:48;;;;;;;4.00;3.70;;;27.00;56.00;;;;;;5137489;27;20459;-57
2022/05/07 11:01:16;;;;;;;3.90;3.50;;;27.20;56.30;;;;;;5131545;27;20480;-57
2022/05/07 11:03:45;;;;;;;7.00;3.60;;;27.10;57.70;;;;;;5139398;27;20954;-59
2022/05/07 11:06:13;;;;;;;5.50;3.60;;;27.20;55.40;;;;;;5137614;27;20441;-58
2022/05/07 11:08:50;;;;;;;3.67;3.40;;;26.90;55.80;;;;;;5154717;27;20484;-57
2022/05/07 11:11:22;;;;;;;5.53;4.37;;;25.20;58.50;;;;;;5154463;27;20452;-56
2022/05/07 11:13:50;;;;;;;6.33;3.43;;;25.40;57.70;;;;;;5147353;27;20450;-58
2022/05/07 11:16:18;;;;;;;3.50;3.20;;;25.10;57.40;;;;;;5132756;27;20446;-59
2022/05/07 11:18:49;;;;;;;4.83;4.43;;;25.60;56.50;;;;;;5133781;27;20549;-58
2022/05/07 11:21:16;;;;;;;3.50;3.20;;;25.30;56.10;;;;;;5133917;27;20778;-59
2022/05/07 11:23:43;;;;;;;4.33;3.93;;;26.10;56.30;;;;;;5132610;27;20464;-57
2022/05/07 11:26:16;;;;;;;4.33;3.53;;;25.40;55.80;;;;;;5132240;27;20446;-57
2022/05/07 11:28:44;;;;;;;3.90;3.30;;;24.90;56.40;;;;;;5151999;27;20491;-61
2022/05/07 11:31:12;;;;;;;3.60;2.97;;;24.30;56.20;;;;;;5152725;27;20425;-57
2022/05/07 11:33:40;;;;;;;3.53;2.90;;;24.60;57.10;;;;;;5152158;27;20950;-59
2022/05/07 11:36:09;;;;;;;4.73;3.33;;;25.10;56.90;;;;;;5151660;27;20495;-58
2022/05/07 11:38:37;;;;;;;5.27;3.23;;;25.50;57.30;;;;;;5148367;27;20793;-58
2022/05/07 11:41:14;;;;;;;3.00;2.63;;;26.20;56.10;;;;;;5153818;27;20445;-58
2022/05/07 11:46:31;;;;;;;6.00;3.80;;;25.20;53.20;;;;;;5074571;27;20433;-58
2022/05/07 11:49:06;;;;;;;4.30;3.03;;;25.50;56.30;;;;;;5153452;27;20489;-58
2022/05/07 11:51:35;;;;;;;5.50;2.80;;;25.70;55.10;;;;;;5155067;27;20441;-59
2022/05/07 11:54:09;;;;;;;3.87;3.53;;;25.70;55.20;;;;;;5156463;27;20572;-57
2022/05/07 11:56:46;;;;;;;5.27;3.03;;;25.90;54.50;;;;;;5149322;27;20478;-57
2022/05/07 11:59:14;;;;;;;3.40;2.70;;;25.80;54.60;;;;;;5156810;27;20981;-53
2022/05/07 12:01:42;;;;;;;3.60;3.30;;;24.80;53.20;;;;;;5152507;27;20935;-58
2022/05/07 12:04:10;;;;;;;3.23;2.77;;;25.00;56.40;;;;;;5157001;27;20844;-57
2022/05/07 12:06:40;;;;;;;2.77;2.53;;;25.30;56.60;;;;;;5155415;27;20444;-57
2022/05/07 12:09:15;;;;;;;4.67;3.33;;;25.80;57.40;;;;;;5156115;27;20492;-58
2022/05/07 12:11:42;;;;;;;3.03;2.80;;;25.50;56.00;;;;;;5154657;27;20448;-59
2022/05/07 12:14:10;;;;;;;4.23;2.93;;;25.70;56.60;;;;;;5157047;27;20451;-56
2022/05/07 12:19:28;;;;;;;3.70;3.40;;;24.80;56.30;;;;;;5157396;27;20497;-56
2022/05/07 12:30:13;;;;;;;7.50;3.30;;;23.30;56.40;;;;;;5156686;27;20503;-58
2022/05/07 12:32:43;;;;;;;3.73;3.37;;;23.10;55.70;;;;;;5156620;27;20450;-53
2022/05/07 12:35:11;;;;;;;4.07;3.67;;;22.90;56.20;;;;;;5158186;27;20460;-56
2022/05/07 12:37:40;;;;;;;2.70;2.50;;;22.50;56.20;;;;;;5157456;27;20968;-61
2022/05/07 12:40:08;;;;;;;3.50;3.20;;;22.70;56.50;;;;;;5156747;27;20535;-59
2022/05/07 12:42:36;;;;;;;3.50;2.70;;;23.00;59.20;;;;;;5155233;27;20436;-60
2022/05/07 12:45:03;;;;;;;5.23;3.43;;;23.60;57.50;;;;;;5154514;27;20441;-60
2022/05/07 12:47:30;;;;;;;3.80;2.73;;;23.40;56.10;;;;;;5154171;27;20476;-60
2022/05/07 12:49:58;;;;;;;4.23;3.40;;;23.80;55.70;;;;;;5154276;27;20560;-60
2022/05/07 12:52:25;;;;;;;3.73;2.67;;;23.70;55.20;;;;;;5154364;27;20980;-58
2022/05/07 12:54:53;;;;;;;3.40;3.10;;;24.60;57.00;;;;;;5154599;27;20445;-61
2022/05/07 12:57:21;;;;;;;8.50;3.30;;;25.30;56.40;;;;;;5156934;27;20452;-61
2022/05/07 12:59:48;;;;;;;6.03;2.97;;;25.00;55.50;;;;;;5158057;27;20567;-61
2022/05/07 13:02:15;;;;;;;5.07;3.40;;;25.20;55.40;;;;;;5157682;27;20879;-58
2022/05/07 13:04:42;;;;;;;2.73;2.53;;;25.20;55.10;;;;;;5157130;27;20444;-59
2022/05/07 13:07:09;;;;;;;3.23;2.97;;;25.00;54.20;;;;;;5157529;27;20440;-57
2022/05/07 13:09:37;;;;;;;5.07;3.10;;;24.60;56.20;;;;;;5156143;27;20484;-58
2022/05/07 13:12:07;;;;;;;3.80;3.50;;;25.00;56.50;;;;;;5157817;27;20444;-60
2022/05/07 13:14:35;;;;;;;3.87;3.00;;;24.80;54.60;;;;;;5157493;27;20521;-60
2022/05/07 13:17:03;;;;;;;5.50;2.97;;;24.80;55.70;;;;;;5157715;27;20801;-59
2022/05/07 13:19:31;;;;;;;3.33;3.00;;;24.90;56.90;;;;;;5157337;27;20468;-58
2022/05/07 13:21:58;;;;;;;2.93;2.70;;;24.90;54.80;;;;;;5157357;27;20449;-59
2022/05/07 13:24:25;;;;;;;5.27;2.93;;;25.20;56.00;;;;;;5157516;27;20483;-59
2022/05/07 13:26:52;;;;;;;3.30;2.80;;;25.40;54.00;;;;;;5157276;27;20468;-59
2022/05/07 13:29:21;;;;;;;3.17;2.47;;;25.10;54.00;;;;;;5156805;27;21010;-59